Archival Weather

Chicago O'Hare International

Chicago, Illinois (KORD)

Report from: Thursday, November 24, 2022 2:27 PM CST
Current time: Sunday, December 4, 2022 5:23 AM CST

Current weather
Weather history
Weather forecast

Temperature11.1°C (52.0°F)
Dew point5.0°C (41.0°F)
Winds 11 kts (5.7 m/s, 12.7 mph) Southwest (230°)
Visibility10 mi. (16.1 km)
Clouds Ceiling: Overcast 2,800 ft. (853 m)
Altimeter30.03 in.Hg (1017 mB)
Relative humidity66 %
Density altitude-462 ft. (-141 m)
Remarks System requires maintenance
Automated weather observing station with precipitation discriminator
Flight conditions Marginal Visual Meteorological Conditions
Raw dataKORD 242027Z 23011KT 10SM OVC028 11/05 A3003 RMK AO2 T01110050 $
An error has occurred. This application may no longer respond until reloaded. Reload 🗙